DAL1873 TNCM-KATL
Flight info
| Callsign | DAL1873 |
|---|---|
| Flight time | 4h 0m |
| Altitude | 36000 |
| Route | DCT ILIDO/M079F360 L451 JAINS/N0460F360 Y436 DEDDY DCT HOTHH JJEDI4 |
| Aircraft | A321/M-V/N |
Departure
| Time | 2026-05-06 12:31 |
|---|---|
| Airport | Princess Juliana International Airport (TNCM) |
Arrival
| Time | 2026-05-06 16:32 |
|---|---|
| Airport | Hartsfield Jackson Atlanta International Airport (KATL) |
| Time | Latitude | Longitude | Altitude | Speed | Heading |
|---|---|---|---|---|---|
| 2026-05-06 12:05 | 18.04312 | -63.11500 | 29 ft | 0 kts | 348° |
| 2026-05-06 12:24 | 18.04305 | -63.11499 | 29 ft | 3 kts | 348° |
| 2026-05-06 12:25 | 18.04286 | -63.11495 | 29 ft | 3 kts | 348° |
| 2026-05-06 12:25 | 18.04268 | -63.11491 | 29 ft | 3 kts | 348° |
| 2026-05-06 12:25 | 18.04249 | -63.11487 | 29 ft | 3 kts | 348° |
| 2026-05-06 12:25 | 18.04231 | -63.11483 | 28 ft | 3 kts | 327° |
| 2026-05-06 12:26 | 18.04219 | -63.11468 | 28 ft | 3 kts | 265° |
| 2026-05-06 12:26 | 18.04221 | -63.11457 | 28 ft | 0 kts | 229° |
| 2026-05-06 12:27 | 18.04219 | -63.11459 | 28 ft | 2 kts | 229° |
| 2026-05-06 12:28 | 18.04206 | -63.11483 | 28 ft | 7 kts | 242° |
| 2026-05-06 12:28 | 18.04174 | -63.11537 | 28 ft | 9 kts | 232° |
| 2026-05-06 12:28 | 18.04132 | -63.11591 | 28 ft | 10 kts | 229° |
| 2026-05-06 12:28 | 18.04092 | -63.11643 | 28 ft | 6 kts | 232° |
| 2026-05-06 12:29 | 18.04068 | -63.11684 | 28 ft | 7 kts | 247° |
| 2026-05-06 12:29 | 18.04056 | -63.11741 | 27 ft | 9 kts | 261° |
| 2026-05-06 12:29 | 18.04047 | -63.11806 | 27 ft | 9 kts | 262° |
| 2026-05-06 12:29 | 18.04037 | -63.11876 | 28 ft | 10 kts | 258° |
| 2026-05-06 12:30 | 18.04006 | -63.11936 | 28 ft | 9 kts | 234° |
| 2026-05-06 12:30 | 18.03962 | -63.11960 | 27 ft | 8 kts | 165° |
| 2026-05-06 12:30 | 18.03947 | -63.11912 | 27 ft | 0 kts | 83° |
| 2026-05-06 12:31 | 18.03962 | -63.11817 | 28 ft | 48 kts | 81° |
| 2026-05-06 12:31 | 18.04052 | -63.11172 | 28 ft | 127 kts | 81° |
| 2026-05-06 12:31 | 18.04233 | -63.10060 | 200 ft | 172 kts | 81° |
| 2026-05-06 12:31 | 18.04207 | -63.08843 | 1026 ft | 168 kts | 109° |
| 2026-05-06 12:32 | 18.03460 | -63.07858 | 1697 ft | 186 kts | 145° |
| 2026-05-06 12:32 | 18.02213 | -63.07540 | 2254 ft | 187 kts | 183° |
| 2026-05-06 12:32 | 18.00988 | -63.08016 | 2651 ft | 197 kts | 211° |
| 2026-05-06 12:32 | 17.99913 | -63.09051 | 2852 ft | 221 kts | 223° |
| 2026-05-06 12:33 | 17.98872 | -63.10297 | 3311 ft | 232 kts | 229° |
| 2026-05-06 12:33 | 17.97877 | -63.11655 | 3877 ft | 237 kts | 233° |
| 2026-05-06 12:33 | 17.97211 | -63.13189 | 4666 ft | 235 kts | 260° |
| 2026-05-06 12:33 | 17.97289 | -63.14925 | 5146 ft | 244 kts | 285° |
| 2026-05-06 12:34 | 17.97982 | -63.16524 | 5845 ft | 237 kts | 306° |
| 2026-05-06 12:34 | 17.98989 | -63.17926 | 6232 ft | 252 kts | 309° |
| 2026-05-06 12:34 | 18.00122 | -63.19456 | 6328 ft | 278 kts | 302° |
| 2026-05-06 12:34 | 18.00723 | -63.21422 | 6630 ft | 291 kts | 276° |
| 2026-05-06 12:35 | 18.01128 | -63.23518 | 7177 ft | 295 kts | 294° |
| 2026-05-06 12:35 | 18.02338 | -63.25246 | 7784 ft | 296 kts | 318° |
| 2026-05-06 12:35 | 18.03956 | -63.26605 | 8371 ft | 299 kts | 326° |
| 2026-05-06 12:35 | 18.05672 | -63.27833 | 9006 ft | 300 kts | 327° |
| 2026-05-06 12:36 | 18.07390 | -63.29092 | 9643 ft | 302 kts | 324° |
| 2026-05-06 12:36 | 18.09065 | -63.30427 | 10239 ft | 305 kts | 322° |
| 2026-05-06 12:36 | 18.10759 | -63.31889 | 10379 ft | 324 kts | 320° |
| 2026-05-06 12:36 | 18.12497 | -63.33485 | 10501 ft | 342 kts | 318° |
| 2026-05-06 12:37 | 18.14302 | -63.35209 | 10631 ft | 358 kts | 317° |
| 2026-05-06 12:37 | 18.16163 | -63.37017 | 10974 ft | 366 kts | 317° |
| 2026-05-06 12:37 | 18.18031 | -63.38841 | 11507 ft | 368 kts | 317° |
| 2026-05-06 12:37 | 18.19915 | -63.40676 | 12053 ft | 370 kts | 317° |
| 2026-05-06 12:38 | 18.21809 | -63.42514 | 12594 ft | 372 kts | 317° |
| 2026-05-06 12:38 | 18.23721 | -63.44362 | 13153 ft | 374 kts | 316° |
| 2026-05-06 12:38 | 18.25638 | -63.46209 | 13724 ft | 375 kts | 317° |
| 2026-05-06 12:38 | 18.27563 | -63.48061 | 14259 ft | 375 kts | 316° |
| 2026-05-06 12:39 | 18.29488 | -63.49914 | 14793 ft | 376 kts | 316° |
| 2026-05-06 12:39 | 18.31403 | -63.51757 | 15222 ft | 378 kts | 317° |
| 2026-05-06 12:39 | 18.33352 | -63.53629 | 15693 ft | 381 kts | 317° |
| 2026-05-06 12:39 | 18.35314 | -63.55515 | 16170 ft | 382 kts | 317° |
| 2026-05-06 12:40 | 18.37279 | -63.57408 | 16687 ft | 383 kts | 317° |
| 2026-05-06 12:40 | 18.39255 | -63.59318 | 17173 ft | 385 kts | 317° |
| 2026-05-06 12:40 | 18.41225 | -63.61222 | 17636 ft | 387 kts | 317° |
| 2026-05-06 12:40 | 18.43219 | -63.63151 | 18076 ft | 389 kts | 317° |
| 2026-05-06 12:41 | 18.45215 | -63.65079 | 18499 ft | 392 kts | 317° |
| 2026-05-06 12:41 | 18.47237 | -63.67029 | 18884 ft | 394 kts | 317° |
| 2026-05-06 12:41 | 18.49264 | -63.68986 | 19266 ft | 396 kts | 317° |
| 2026-05-06 12:41 | 18.51299 | -63.70949 | 19658 ft | 398 kts | 317° |
| 2026-05-06 12:42 | 18.53339 | -63.72923 | 20031 ft | 400 kts | 317° |
| 2026-05-06 12:42 | 18.55392 | -63.74914 | 20398 ft | 402 kts | 317° |
| 2026-05-06 12:42 | 18.57459 | -63.76918 | 20770 ft | 404 kts | 317° |
| 2026-05-06 12:42 | 18.58829 | -63.78247 | 21012 ft | 405 kts | 317° |
| 2026-05-06 12:43 | 18.61613 | -63.80949 | 21509 ft | 408 kts | 317° |
| 2026-05-06 12:43 | 18.62996 | -63.82293 | 21751 ft | 409 kts | 317° |
| 2026-05-06 12:43 | 18.65093 | -63.84332 | 22117 ft | 410 kts | 317° |
| 2026-05-06 12:43 | 18.67197 | -63.86373 | 22477 ft | 412 kts | 317° |
| 2026-05-06 12:44 | 18.69316 | -63.88424 | 22844 ft | 414 kts | 317° |
| 2026-05-06 12:44 | 18.71443 | -63.90478 | 23203 ft | 415 kts | 317° |
| 2026-05-06 12:44 | 18.73573 | -63.92540 | 23536 ft | 417 kts | 317° |
| 2026-05-06 12:44 | 18.75719 | -63.94619 | 23853 ft | 419 kts | 317° |
| 2026-05-06 12:45 | 18.77863 | -63.96704 | 24113 ft | 421 kts | 317° |
| 2026-05-06 12:45 | 18.80018 | -63.98803 | 24371 ft | 423 kts | 317° |
| 2026-05-06 12:45 | 18.84348 | -64.03013 | 24867 ft | 427 kts | 317° |
| 2026-05-06 12:46 | 18.86535 | -64.05139 | 25110 ft | 429 kts | 316° |
| 2026-05-06 12:46 | 18.88737 | -64.07284 | 25390 ft | 431 kts | 316° |
| 2026-05-06 12:46 | 18.90941 | -64.09429 | 25651 ft | 432 kts | 316° |
| 2026-05-06 12:46 | 18.93157 | -64.11584 | 25901 ft | 434 kts | 316° |
| 2026-05-06 12:47 | 18.95387 | -64.13758 | 26161 ft | 436 kts | 316° |
| 2026-05-06 12:47 | 18.97619 | -64.15936 | 26405 ft | 438 kts | 316° |
| 2026-05-06 12:47 | 18.99864 | -64.18125 | 26658 ft | 440 kts | 316° |
| 2026-05-06 12:47 | 19.02122 | -64.20326 | 26904 ft | 442 kts | 316° |
| 2026-05-06 12:48 | 19.04383 | -64.22530 | 27134 ft | 444 kts | 316° |
| 2026-05-06 12:48 | 19.06666 | -64.24754 | 27371 ft | 446 kts | 316° |
| 2026-05-06 12:48 | 19.08948 | -64.26980 | 27604 ft | 448 kts | 315° |
| 2026-05-06 12:48 | 19.11235 | -64.29217 | 27834 ft | 450 kts | 315° |
| 2026-05-06 12:49 | 19.13537 | -64.31469 | 28066 ft | 451 kts | 315° |
| 2026-05-06 12:49 | 19.15849 | -64.33730 | 28301 ft | 453 kts | 315° |
| 2026-05-06 12:49 | 19.18172 | -64.36000 | 28529 ft | 455 kts | 315° |
| 2026-05-06 12:49 | 19.20505 | -64.38276 | 28768 ft | 457 kts | 315° |
| 2026-05-06 12:50 | 19.22836 | -64.40555 | 29047 ft | 457 kts | 315° |
| 2026-05-06 12:50 | 19.25162 | -64.42836 | 29406 ft | 455 kts | 315° |
| 2026-05-06 12:50 | 19.27489 | -64.45120 | 29743 ft | 454 kts | 315° |
| 2026-05-06 12:50 | 19.29799 | -64.47388 | 30057 ft | 454 kts | 315° |
| 2026-05-06 12:51 | 19.32115 | -64.49660 | 30330 ft | 453 kts | 315° |
| 2026-05-06 12:51 | 19.34429 | -64.51931 | 30608 ft | 453 kts | 315° |
| 2026-05-06 12:51 | 19.36735 | -64.54195 | 30873 ft | 452 kts | 314° |
| 2026-05-06 12:51 | 19.39039 | -64.56459 | 31146 ft | 451 kts | 314° |
| 2026-05-06 12:52 | 19.41344 | -64.58720 | 31438 ft | 451 kts | 314° |
| 2026-05-06 12:52 | 19.43640 | -64.60970 | 31708 ft | 450 kts | 314° |
| 2026-05-06 12:52 | 19.45935 | -64.63222 | 31990 ft | 449 kts | 314° |
| 2026-05-06 12:52 | 19.48204 | -64.65447 | 32275 ft | 448 kts | 314° |
| 2026-05-06 12:53 | 19.50519 | -64.67722 | 32562 ft | 448 kts | 314° |
| 2026-05-06 12:53 | 19.52796 | -64.69967 | 32860 ft | 447 kts | 314° |
| 2026-05-06 12:53 | 19.55072 | -64.72212 | 33143 ft | 446 kts | 313° |
| 2026-05-06 12:53 | 19.57309 | -64.74417 | 33424 ft | 445 kts | 313° |
| 2026-05-06 12:54 | 19.59582 | -64.76652 | 33707 ft | 445 kts | 313° |
| 2026-05-06 12:54 | 19.61851 | -64.78883 | 33986 ft | 444 kts | 313° |
| 2026-05-06 12:54 | 19.64111 | -64.81110 | 34246 ft | 443 kts | 313° |
| 2026-05-06 12:54 | 19.66370 | -64.83338 | 34482 ft | 443 kts | 313° |
| 2026-05-06 12:55 | 19.68625 | -64.85564 | 34701 ft | 443 kts | 313° |
| 2026-05-06 12:55 | 19.70872 | -64.87786 | 34936 ft | 442 kts | 313° |
| 2026-05-06 12:55 | 19.73120 | -64.90010 | 35150 ft | 442 kts | 313° |
| 2026-05-06 12:55 | 19.75370 | -64.92235 | 35361 ft | 441 kts | 313° |
| 2026-05-06 12:56 | 19.77613 | -64.94450 | 35570 ft | 441 kts | 313° |
| 2026-05-06 12:56 | 19.79859 | -64.96667 | 35777 ft | 441 kts | 313° |
| 2026-05-06 12:56 | 19.82100 | -64.98878 | 35985 ft | 440 kts | 313° |
| 2026-05-06 12:56 | 19.84347 | -65.01096 | 36126 ft | 440 kts | 313° |
| 2026-05-06 12:57 | 19.86578 | -65.03304 | 36158 ft | 438 kts | 313° |
| 2026-05-06 12:57 | 19.91034 | -65.07724 | 36158 ft | 438 kts | 313° |
| 2026-05-06 12:58 | 19.95484 | -65.12136 | 36156 ft | 437 kts | 314° |
| 2026-05-06 12:58 | 19.99924 | -65.16539 | 36157 ft | 436 kts | 313° |
| 2026-05-06 12:59 | 20.04362 | -65.20948 | 36158 ft | 436 kts | 313° |
| 2026-05-06 12:59 | 20.08795 | -65.25362 | 36162 ft | 436 kts | 313° |
| 2026-05-06 13:00 | 20.13208 | -65.29761 | 36164 ft | 437 kts | 314° |
| 2026-05-06 13:00 | 20.17680 | -65.34196 | 36178 ft | 436 kts | 314° |
| 2026-05-06 13:01 | 20.22107 | -65.38595 | 36178 ft | 435 kts | 314° |
| 2026-05-06 13:01 | 20.26498 | -65.42984 | 36180 ft | 435 kts | 314° |
| 2026-05-06 13:02 | 20.30939 | -65.47426 | 36193 ft | 435 kts | 314° |
| 2026-05-06 13:02 | 20.35339 | -65.51832 | 36183 ft | 434 kts | 314° |
| 2026-05-06 13:03 | 20.39749 | -65.56226 | 36178 ft | 434 kts | 314° |
| 2026-05-06 13:03 | 20.44151 | -65.60620 | 36174 ft | 433 kts | 314° |
| 2026-05-06 13:04 | 20.48545 | -65.65022 | 36173 ft | 433 kts | 314° |
| 2026-05-06 13:04 | 20.52906 | -65.69392 | 36171 ft | 433 kts | 314° |
| 2026-05-06 13:05 | 20.57300 | -65.73784 | 36170 ft | 433 kts | 314° |
| 2026-05-06 13:05 | 20.61698 | -65.78191 | 36169 ft | 433 kts | 314° |
| 2026-05-06 13:06 | 20.66081 | -65.82595 | 36174 ft | 433 kts | 314° |
| 2026-05-06 13:06 | 20.70462 | -65.87013 | 36181 ft | 433 kts | 314° |
| 2026-05-06 13:07 | 20.74852 | -65.91426 | 36181 ft | 433 kts | 314° |
| 2026-05-06 13:07 | 20.79233 | -65.95838 | 36184 ft | 433 kts | 314° |
| 2026-05-06 13:08 | 20.83605 | -66.00243 | 36182 ft | 432 kts | 314° |
| 2026-05-06 13:08 | 20.87982 | -66.04659 | 36181 ft | 432 kts | 314° |
| 2026-05-06 13:09 | 20.92351 | -66.09061 | 36179 ft | 432 kts | 315° |
| 2026-05-06 13:09 | 20.96721 | -66.13475 | 36178 ft | 431 kts | 314° |
| 2026-05-06 13:10 | 21.01048 | -66.17858 | 36177 ft | 431 kts | 314° |
| 2026-05-06 13:10 | 21.05411 | -66.22271 | 36185 ft | 431 kts | 315° |
| 2026-05-06 13:11 | 21.09764 | -66.26682 | 36184 ft | 431 kts | 315° |
| 2026-05-06 13:11 | 21.14124 | -66.31100 | 36182 ft | 431 kts | 315° |
| 2026-05-06 13:12 | 21.18472 | -66.35516 | 36183 ft | 431 kts | 315° |
| 2026-05-06 13:12 | 21.22818 | -66.39929 | 36180 ft | 430 kts | 315° |
| 2026-05-06 13:13 | 21.27165 | -66.44345 | 36181 ft | 430 kts | 315° |
| 2026-05-06 13:13 | 21.31511 | -66.48759 | 36179 ft | 430 kts | 315° |
| 2026-05-06 13:14 | 21.35847 | -66.53176 | 36175 ft | 430 kts | 315° |
| 2026-05-06 13:14 | 21.40181 | -66.57598 | 36190 ft | 430 kts | 315° |
| 2026-05-06 13:15 | 21.44514 | -66.62019 | 36188 ft | 429 kts | 315° |
| 2026-05-06 13:15 | 21.48839 | -66.66425 | 36182 ft | 428 kts | 315° |
| 2026-05-06 13:16 | 21.53149 | -66.70832 | 36182 ft | 427 kts | 315° |
| 2026-05-06 13:16 | 21.57432 | -66.75203 | 36178 ft | 427 kts | 315° |
| 2026-05-06 13:17 | 21.61763 | -66.79636 | 36177 ft | 427 kts | 314° |
| 2026-05-06 13:17 | 21.66034 | -66.84015 | 36176 ft | 427 kts | 314° |
| 2026-05-06 13:18 | 21.70336 | -66.88428 | 36172 ft | 427 kts | 315° |
| 2026-05-06 13:18 | 21.74630 | -66.92834 | 36187 ft | 426 kts | 314° |
| 2026-05-06 13:19 | 21.78947 | -66.97265 | 36179 ft | 425 kts | 314° |
| 2026-05-06 13:19 | 21.83230 | -67.01661 | 36174 ft | 425 kts | 314° |
| 2026-05-06 13:20 | 21.87486 | -67.06037 | 36171 ft | 425 kts | 314° |
| 2026-05-06 13:20 | 21.91756 | -67.10436 | 36168 ft | 425 kts | 314° |
| 2026-05-06 13:21 | 21.96027 | -67.14838 | 36166 ft | 425 kts | 314° |
| 2026-05-06 13:21 | 22.00299 | -67.19243 | 36163 ft | 425 kts | 314° |
| 2026-05-06 13:22 | 22.04564 | -67.23653 | 36167 ft | 425 kts | 314° |
| 2026-05-06 13:22 | 22.08839 | -67.28058 | 36168 ft | 425 kts | 315° |
| 2026-05-06 13:23 | 22.13107 | -67.32464 | 36177 ft | 424 kts | 314° |
| 2026-05-06 13:23 | 22.17365 | -67.36875 | 36173 ft | 424 kts | 314° |
| 2026-05-06 13:24 | 22.21617 | -67.41282 | 36163 ft | 424 kts | 314° |
| 2026-05-06 13:24 | 22.25864 | -67.45697 | 36167 ft | 424 kts | 314° |
| 2026-05-06 13:25 | 22.30113 | -67.50101 | 36164 ft | 424 kts | 314° |
| 2026-05-06 13:25 | 22.33649 | -67.53769 | 36165 ft | 424 kts | 314° |
| 2026-05-06 13:26 | 22.37901 | -67.58186 | 36169 ft | 423 kts | 314° |
| 2026-05-06 13:26 | 22.42136 | -67.62602 | 36169 ft | 423 kts | 314° |
| 2026-05-06 13:27 | 22.46379 | -67.67018 | 36180 ft | 423 kts | 315° |
| 2026-05-06 13:27 | 22.50615 | -67.71439 | 36174 ft | 423 kts | 314° |
| 2026-05-06 13:28 | 22.54847 | -67.75855 | 36174 ft | 423 kts | 315° |
| 2026-05-06 13:28 | 22.59079 | -67.80264 | 36164 ft | 422 kts | 315° |
| 2026-05-06 13:29 | 22.63306 | -67.84682 | 36168 ft | 422 kts | 315° |
| 2026-05-06 13:29 | 22.67530 | -67.89100 | 36165 ft | 422 kts | 314° |
| 2026-05-06 13:30 | 22.71746 | -67.93523 | 36161 ft | 422 kts | 314° |
| 2026-05-06 13:30 | 22.75938 | -67.97910 | 36160 ft | 422 kts | 314° |
| 2026-05-06 13:31 | 22.80163 | -68.02329 | 36169 ft | 422 kts | 315° |
| 2026-05-06 13:31 | 22.84393 | -68.06759 | 36168 ft | 422 kts | 315° |
| 2026-05-06 13:32 | 22.88604 | -68.11192 | 36165 ft | 422 kts | 315° |
| 2026-05-06 13:32 | 22.92814 | -68.15627 | 36163 ft | 422 kts | 315° |
| 2026-05-06 13:33 | 22.97028 | -68.20059 | 36159 ft | 422 kts | 315° |
| 2026-05-06 13:33 | 23.01241 | -68.24501 | 36159 ft | 422 kts | 315° |
| 2026-05-06 13:34 | 23.05440 | -68.28939 | 36163 ft | 421 kts | 315° |
| 2026-05-06 13:34 | 23.09647 | -68.33374 | 36159 ft | 421 kts | 315° |
| 2026-05-06 13:35 | 23.13854 | -68.37806 | 36157 ft | 421 kts | 315° |
| 2026-05-06 13:35 | 23.18047 | -68.42242 | 36146 ft | 421 kts | 315° |
| 2026-05-06 13:36 | 23.22245 | -68.46683 | 36143 ft | 421 kts | 315° |
| 2026-05-06 13:36 | 23.26434 | -68.51128 | 36156 ft | 421 kts | 315° |
| 2026-05-06 13:37 | 23.30624 | -68.55576 | 36153 ft | 421 kts | 315° |
| 2026-05-06 13:37 | 23.34826 | -68.60024 | 36153 ft | 421 kts | 315° |
| 2026-05-06 13:38 | 23.38993 | -68.64452 | 36156 ft | 421 kts | 315° |
| 2026-05-06 13:38 | 23.43181 | -68.68907 | 36156 ft | 421 kts | 315° |
| 2026-05-06 13:39 | 23.47368 | -68.73367 | 36157 ft | 421 kts | 315° |
| 2026-05-06 13:39 | 23.51555 | -68.77833 | 36173 ft | 421 kts | 315° |
| 2026-05-06 13:40 | 23.55736 | -68.82293 | 36153 ft | 420 kts | 315° |
| 2026-05-06 13:40 | 23.59915 | -68.86750 | 36163 ft | 420 kts | 315° |
| 2026-05-06 13:41 | 23.64093 | -68.91211 | 36149 ft | 420 kts | 315° |
| 2026-05-06 13:41 | 23.68265 | -68.95671 | 36160 ft | 420 kts | 315° |
| 2026-05-06 13:42 | 23.72442 | -69.00140 | 36150 ft | 420 kts | 315° |
| 2026-05-06 13:42 | 23.76611 | -69.04610 | 36163 ft | 420 kts | 315° |
| 2026-05-06 13:43 | 23.80774 | -69.09082 | 36153 ft | 420 kts | 315° |
| 2026-05-06 13:43 | 23.84946 | -69.13560 | 36147 ft | 420 kts | 315° |
| 2026-05-06 13:44 | 23.89109 | -69.18026 | 36164 ft | 419 kts | 315° |
| 2026-05-06 13:44 | 23.93268 | -69.22504 | 36155 ft | 419 kts | 315° |
| 2026-05-06 13:45 | 23.97420 | -69.26977 | 36151 ft | 419 kts | 315° |
| 2026-05-06 13:45 | 24.03646 | -69.33683 | 36156 ft | 419 kts | 315° |
| 2026-05-06 13:46 | 24.07792 | -69.38155 | 36153 ft | 419 kts | 315° |
| 2026-05-06 13:46 | 24.11944 | -69.42632 | 36159 ft | 419 kts | 315° |
| 2026-05-06 13:47 | 24.16065 | -69.47094 | 36155 ft | 419 kts | 315° |
| 2026-05-06 13:47 | 24.20206 | -69.51576 | 36173 ft | 419 kts | 315° |
| 2026-05-06 13:48 | 24.24347 | -69.56066 | 36175 ft | 418 kts | 316° |
| 2026-05-06 13:48 | 24.28481 | -69.60544 | 36176 ft | 417 kts | 316° |
| 2026-05-06 13:49 | 24.32601 | -69.65019 | 36167 ft | 416 kts | 316° |
| 2026-05-06 13:49 | 24.36711 | -69.69486 | 36172 ft | 416 kts | 316° |
| 2026-05-06 13:50 | 24.40820 | -69.73957 | 36162 ft | 416 kts | 316° |
| 2026-05-06 13:50 | 24.44928 | -69.78428 | 36158 ft | 415 kts | 316° |
| 2026-05-06 13:51 | 24.49035 | -69.82896 | 36161 ft | 415 kts | 316° |
| 2026-05-06 13:51 | 24.53132 | -69.87364 | 36160 ft | 415 kts | 316° |
| 2026-05-06 13:52 | 24.57223 | -69.91825 | 36186 ft | 414 kts | 316° |
| 2026-05-06 13:52 | 24.61305 | -69.96279 | 36173 ft | 413 kts | 316° |
| 2026-05-06 13:53 | 24.65368 | -70.00735 | 36170 ft | 412 kts | 316° |
| 2026-05-06 13:53 | 24.69418 | -70.05180 | 36177 ft | 411 kts | 316° |
| 2026-05-06 13:54 | 24.73471 | -70.09623 | 36161 ft | 411 kts | 316° |
| 2026-05-06 13:54 | 24.77521 | -70.14059 | 36168 ft | 411 kts | 316° |
| 2026-05-06 13:55 | 24.81558 | -70.18496 | 36167 ft | 410 kts | 316° |
| 2026-05-06 13:55 | 24.85601 | -70.22940 | 36150 ft | 410 kts | 317° |
| 2026-05-06 13:56 | 24.89636 | -70.27371 | 36154 ft | 409 kts | 317° |
| 2026-05-06 13:56 | 24.93635 | -70.31771 | 36173 ft | 409 kts | 316° |
| 2026-05-06 13:57 | 24.97675 | -70.36226 | 36178 ft | 408 kts | 316° |
| 2026-05-06 13:57 | 25.01652 | -70.40610 | 36165 ft | 407 kts | 316° |
| 2026-05-06 13:58 | 25.05653 | -70.45029 | 36168 ft | 407 kts | 316° |
| 2026-05-06 13:58 | 25.09643 | -70.49446 | 36160 ft | 406 kts | 316° |
| 2026-05-06 13:59 | 25.13639 | -70.53869 | 36157 ft | 406 kts | 316° |
| 2026-05-06 13:59 | 25.17630 | -70.58284 | 36156 ft | 405 kts | 317° |
| 2026-05-06 14:00 | 25.21615 | -70.62695 | 36162 ft | 405 kts | 317° |
| 2026-05-06 14:00 | 25.25582 | -70.67105 | 36163 ft | 405 kts | 317° |
| 2026-05-06 14:01 | 25.29542 | -70.71512 | 36168 ft | 404 kts | 317° |
| 2026-05-06 14:01 | 25.33508 | -70.75931 | 36166 ft | 404 kts | 317° |
| 2026-05-06 14:02 | 25.37470 | -70.80338 | 36161 ft | 404 kts | 317° |
| 2026-05-06 14:02 | 25.41406 | -70.84716 | 36165 ft | 404 kts | 317° |
| 2026-05-06 14:03 | 25.45361 | -70.89129 | 36155 ft | 404 kts | 317° |
| 2026-05-06 14:03 | 25.49308 | -70.93545 | 36159 ft | 403 kts | 317° |
| 2026-05-06 14:04 | 25.53261 | -70.97957 | 36158 ft | 403 kts | 317° |
| 2026-05-06 14:04 | 25.57206 | -71.02364 | 36164 ft | 403 kts | 317° |
| 2026-05-06 14:05 | 25.61146 | -71.06775 | 36184 ft | 403 kts | 317° |
| 2026-05-06 14:05 | 25.65083 | -71.11194 | 36178 ft | 402 kts | 317° |
| 2026-05-06 14:06 | 25.69014 | -71.15613 | 36171 ft | 402 kts | 317° |
| 2026-05-06 14:06 | 25.72938 | -71.20012 | 36171 ft | 401 kts | 317° |
| 2026-05-06 14:07 | 25.76859 | -71.24419 | 36169 ft | 401 kts | 317° |
| 2026-05-06 14:07 | 25.80781 | -71.28831 | 36164 ft | 401 kts | 317° |
| 2026-05-06 14:08 | 25.84696 | -71.33243 | 36165 ft | 401 kts | 317° |
| 2026-05-06 14:08 | 25.88605 | -71.37665 | 36161 ft | 401 kts | 317° |
| 2026-05-06 14:09 | 25.91854 | -71.41338 | 36164 ft | 401 kts | 317° |
| 2026-05-06 14:09 | 25.95767 | -71.45755 | 36171 ft | 401 kts | 316° |
| 2026-05-06 14:10 | 25.99675 | -71.50166 | 36170 ft | 400 kts | 316° |
| 2026-05-06 14:10 | 26.03573 | -71.54584 | 36166 ft | 400 kts | 316° |
| 2026-05-06 14:11 | 26.07477 | -71.59007 | 36157 ft | 400 kts | 316° |
| 2026-05-06 14:11 | 26.11370 | -71.63420 | 36157 ft | 400 kts | 316° |
| 2026-05-06 14:12 | 26.15263 | -71.67832 | 36160 ft | 399 kts | 316° |
| 2026-05-06 14:12 | 26.19155 | -71.72253 | 36162 ft | 399 kts | 316° |
| 2026-05-06 14:13 | 26.23036 | -71.76671 | 36161 ft | 399 kts | 316° |
| 2026-05-06 14:13 | 26.26911 | -71.81092 | 36161 ft | 399 kts | 316° |
| 2026-05-06 14:14 | 26.30779 | -71.85518 | 36184 ft | 399 kts | 316° |
| 2026-05-06 14:14 | 26.34652 | -71.89934 | 36180 ft | 398 kts | 316° |
| 2026-05-06 14:15 | 26.38525 | -71.94356 | 36171 ft | 398 kts | 316° |
| 2026-05-06 14:15 | 26.42381 | -71.98762 | 36168 ft | 397 kts | 316° |
| 2026-05-06 14:16 | 26.46229 | -72.03165 | 36176 ft | 396 kts | 316° |
| 2026-05-06 14:16 | 26.50076 | -72.07575 | 36180 ft | 396 kts | 316° |
| 2026-05-06 14:17 | 26.53919 | -72.11981 | 36176 ft | 396 kts | 316° |
| 2026-05-06 14:17 | 26.57757 | -72.16385 | 36175 ft | 395 kts | 316° |
| 2026-05-06 14:18 | 26.61566 | -72.20767 | 36171 ft | 395 kts | 316° |
| 2026-05-06 14:18 | 26.65392 | -72.25174 | 36174 ft | 395 kts | 316° |
| 2026-05-06 14:19 | 26.69216 | -72.29587 | 36169 ft | 395 kts | 316° |
| 2026-05-06 14:19 | 26.73039 | -72.33988 | 36178 ft | 394 kts | 316° |
| 2026-05-06 14:20 | 26.76851 | -72.38384 | 36178 ft | 393 kts | 316° |
| 2026-05-06 14:20 | 26.80658 | -72.42775 | 36182 ft | 393 kts | 316° |
| 2026-05-06 14:21 | 26.84463 | -72.47174 | 36177 ft | 393 kts | 316° |
| 2026-05-06 14:21 | 26.88252 | -72.51570 | 36176 ft | 392 kts | 316° |
| 2026-05-06 14:22 | 26.92040 | -72.55968 | 36170 ft | 392 kts | 316° |
| 2026-05-06 14:22 | 26.95833 | -72.60361 | 36157 ft | 392 kts | 316° |
| 2026-05-06 14:23 | 26.99612 | -72.64749 | 36188 ft | 390 kts | 316° |
| 2026-05-06 14:23 | 27.03372 | -72.69122 | 36186 ft | 389 kts | 316° |
| 2026-05-06 14:24 | 27.07121 | -72.73483 | 36178 ft | 388 kts | 316° |
| 2026-05-06 14:24 | 27.10863 | -72.77846 | 36174 ft | 388 kts | 316° |
| 2026-05-06 14:25 | 27.14606 | -72.82207 | 36178 ft | 387 kts | 316° |
| 2026-05-06 14:25 | 27.18335 | -72.86564 | 36173 ft | 387 kts | 316° |
| 2026-05-06 14:26 | 27.22070 | -72.90927 | 36180 ft | 387 kts | 316° |
| 2026-05-06 14:26 | 27.25808 | -72.95294 | 36164 ft | 387 kts | 317° |
| 2026-05-06 14:27 | 27.29512 | -72.99624 | 36182 ft | 386 kts | 316° |
| 2026-05-06 14:27 | 27.33221 | -73.03982 | 36190 ft | 385 kts | 316° |
| 2026-05-06 14:28 | 27.36925 | -73.08336 | 36176 ft | 385 kts | 316° |
| 2026-05-06 14:28 | 27.40632 | -73.12683 | 36181 ft | 384 kts | 316° |
| 2026-05-06 14:29 | 27.44334 | -73.17029 | 36169 ft | 384 kts | 316° |
| 2026-05-06 14:29 | 27.48031 | -73.21377 | 36173 ft | 384 kts | 316° |
| 2026-05-06 14:30 | 27.51719 | -73.25732 | 36172 ft | 384 kts | 316° |
| 2026-05-06 14:30 | 27.55404 | -73.30083 | 36166 ft | 384 kts | 316° |
| 2026-05-06 14:31 | 27.59080 | -73.34431 | 36177 ft | 383 kts | 316° |
| 2026-05-06 14:31 | 27.62750 | -73.38767 | 36179 ft | 382 kts | 316° |
| 2026-05-06 14:32 | 27.66413 | -73.43088 | 36194 ft | 381 kts | 316° |
| 2026-05-06 14:32 | 27.70069 | -73.47416 | 36181 ft | 380 kts | 316° |
| 2026-05-06 14:33 | 27.73711 | -73.51744 | 36177 ft | 380 kts | 316° |
| 2026-05-06 14:33 | 27.77360 | -73.56073 | 36172 ft | 380 kts | 316° |
| 2026-05-06 14:34 | 27.81003 | -73.60400 | 36172 ft | 380 kts | 316° |
| 2026-05-06 14:34 | 27.84643 | -73.64734 | 36173 ft | 380 kts | 316° |
| 2026-05-06 14:35 | 27.88263 | -73.69039 | 36174 ft | 380 kts | 316° |
| 2026-05-06 14:35 | 27.91923 | -73.73404 | 36173 ft | 379 kts | 316° |
| 2026-05-06 14:36 | 27.95550 | -73.77735 | 36171 ft | 379 kts | 316° |
| 2026-05-06 14:36 | 27.99151 | -73.82035 | 36189 ft | 379 kts | 316° |
| 2026-05-06 14:37 | 28.02776 | -73.86368 | 36165 ft | 379 kts | 316° |
| 2026-05-06 14:37 | 28.06395 | -73.90700 | 36173 ft | 379 kts | 316° |
| 2026-05-06 14:38 | 28.10019 | -73.95042 | 36170 ft | 379 kts | 316° |
| 2026-05-06 14:38 | 28.13633 | -73.99385 | 36167 ft | 379 kts | 316° |
| 2026-05-06 14:39 | 28.17252 | -74.03712 | 36155 ft | 378 kts | 316° |
| 2026-05-06 14:39 | 28.20864 | -74.08042 | 36148 ft | 378 kts | 316° |
| 2026-05-06 14:40 | 28.24497 | -74.12353 | 36155 ft | 377 kts | 320° |
| 2026-05-06 14:40 | 28.28592 | -74.16059 | 36156 ft | 376 kts | 323° |
| 2026-05-06 14:41 | 28.32710 | -74.19718 | 36173 ft | 377 kts | 323° |
| 2026-05-06 14:41 | 28.36841 | -74.23389 | 36173 ft | 377 kts | 323° |
| 2026-05-06 14:42 | 28.40965 | -74.27066 | 36159 ft | 377 kts | 323° |
| 2026-05-06 14:42 | 28.45086 | -74.30744 | 36159 ft | 377 kts | 323° |
| 2026-05-06 14:43 | 28.49183 | -74.34399 | 36157 ft | 377 kts | 323° |
| 2026-05-06 14:43 | 28.53310 | -74.38089 | 36151 ft | 377 kts | 322° |
| 2026-05-06 14:44 | 28.57440 | -74.41784 | 36150 ft | 378 kts | 322° |
| 2026-05-06 14:45 | 28.63643 | -74.47341 | 36167 ft | 378 kts | 322° |
| 2026-05-06 14:45 | 28.67778 | -74.51057 | 36165 ft | 379 kts | 322° |
| 2026-05-06 14:46 | 28.71918 | -74.54774 | 36156 ft | 379 kts | 322° |
| 2026-05-06 14:46 | 28.76062 | -74.58495 | 36161 ft | 379 kts | 322° |
| 2026-05-06 14:47 | 28.80211 | -74.62229 | 36162 ft | 380 kts | 322° |
| 2026-05-06 14:47 | 28.84356 | -74.65965 | 36167 ft | 380 kts | 322° |
| 2026-05-06 14:48 | 28.88504 | -74.69710 | 36164 ft | 380 kts | 322° |
| 2026-05-06 14:48 | 28.92653 | -74.73457 | 36166 ft | 381 kts | 322° |
| 2026-05-06 14:49 | 28.96809 | -74.77210 | 36190 ft | 381 kts | 322° |
| 2026-05-06 14:49 | 29.00964 | -74.80965 | 36178 ft | 381 kts | 322° |
| 2026-05-06 14:50 | 29.05122 | -74.84727 | 36177 ft | 381 kts | 322° |
| 2026-05-06 14:50 | 29.09273 | -74.88490 | 36173 ft | 381 kts | 322° |
| 2026-05-06 14:51 | 29.13426 | -74.92260 | 36163 ft | 381 kts | 322° |
| 2026-05-06 14:51 | 29.17581 | -74.96031 | 36166 ft | 381 kts | 322° |
| 2026-05-06 14:52 | 29.21032 | -74.99170 | 36169 ft | 381 kts | 322° |
| 2026-05-06 14:52 | 29.25176 | -75.02951 | 36169 ft | 381 kts | 322° |
| 2026-05-06 14:53 | 29.29327 | -75.06735 | 36168 ft | 381 kts | 321° |
| 2026-05-06 14:53 | 29.33478 | -75.10518 | 36155 ft | 382 kts | 321° |
| 2026-05-06 14:54 | 29.37648 | -75.14324 | 36153 ft | 383 kts | 321° |
| 2026-05-06 14:54 | 29.41819 | -75.18136 | 36155 ft | 384 kts | 321° |
| 2026-05-06 14:55 | 29.46001 | -75.21962 | 36156 ft | 384 kts | 321° |
| 2026-05-06 14:55 | 29.50156 | -75.25758 | 36159 ft | 384 kts | 321° |
| 2026-05-06 14:56 | 29.54338 | -75.29593 | 36160 ft | 385 kts | 321° |
| 2026-05-06 14:56 | 29.58515 | -75.33444 | 36184 ft | 385 kts | 321° |
| 2026-05-06 14:57 | 29.62699 | -75.37292 | 36172 ft | 386 kts | 321° |
| 2026-05-06 14:57 | 29.66896 | -75.41145 | 36168 ft | 386 kts | 321° |
| 2026-05-06 14:58 | 29.71089 | -75.44999 | 36156 ft | 386 kts | 321° |
| 2026-05-06 14:58 | 29.75286 | -75.48874 | 36163 ft | 387 kts | 321° |
| 2026-05-06 14:59 | 29.79482 | -75.52746 | 36163 ft | 387 kts | 321° |
| 2026-05-06 14:59 | 29.83690 | -75.56636 | 36165 ft | 387 kts | 321° |
| 2026-05-06 15:00 | 29.87888 | -75.60522 | 36172 ft | 387 kts | 321° |
| 2026-05-06 15:00 | 29.92085 | -75.64411 | 36168 ft | 387 kts | 321° |
| 2026-05-06 15:01 | 29.96279 | -75.68302 | 36172 ft | 387 kts | 321° |
| 2026-05-06 15:01 | 30.00468 | -75.72188 | 36171 ft | 387 kts | 321° |
| 2026-05-06 15:02 | 30.04636 | -75.76057 | 36174 ft | 387 kts | 321° |
| 2026-05-06 15:02 | 30.08832 | -75.79951 | 36161 ft | 387 kts | 320° |
| 2026-05-06 15:03 | 30.13017 | -75.83852 | 36169 ft | 387 kts | 320° |
| 2026-05-06 15:03 | 30.17199 | -75.87757 | 36173 ft | 386 kts | 320° |
| 2026-05-06 15:04 | 30.21377 | -75.91669 | 36187 ft | 386 kts | 320° |
| 2026-05-06 15:04 | 30.25555 | -75.95580 | 36170 ft | 386 kts | 320° |
| 2026-05-06 15:05 | 30.29741 | -75.99492 | 36171 ft | 387 kts | 320° |
| 2026-05-06 15:05 | 30.33929 | -76.03405 | 36172 ft | 387 kts | 320° |
| 2026-05-06 15:06 | 30.38116 | -76.07326 | 36166 ft | 387 kts | 320° |
| 2026-05-06 15:06 | 30.42294 | -76.11252 | 36162 ft | 387 kts | 320° |
| 2026-05-06 15:07 | 30.46464 | -76.15188 | 36155 ft | 387 kts | 320° |
| 2026-05-06 15:07 | 30.50646 | -76.19126 | 36178 ft | 387 kts | 320° |
| 2026-05-06 15:08 | 30.54834 | -76.23060 | 36166 ft | 388 kts | 320° |
| 2026-05-06 15:08 | 30.59029 | -76.27008 | 36163 ft | 388 kts | 320° |
| 2026-05-06 15:09 | 30.63219 | -76.30967 | 36162 ft | 389 kts | 320° |
| 2026-05-06 15:09 | 30.67416 | -76.34939 | 36163 ft | 389 kts | 320° |
| 2026-05-06 15:10 | 30.71596 | -76.38889 | 36168 ft | 389 kts | 320° |
| 2026-05-06 15:10 | 30.75793 | -76.42861 | 36170 ft | 389 kts | 320° |
| 2026-05-06 15:11 | 30.79994 | -76.46845 | 36171 ft | 389 kts | 320° |
| 2026-05-06 15:11 | 30.84184 | -76.50827 | 36186 ft | 389 kts | 319° |
| 2026-05-06 15:12 | 30.88379 | -76.54809 | 36181 ft | 389 kts | 320° |
| 2026-05-06 15:12 | 30.92571 | -76.58798 | 36173 ft | 389 kts | 320° |
| 2026-05-06 15:13 | 30.96763 | -76.62800 | 36170 ft | 389 kts | 319° |
| 2026-05-06 15:13 | 31.00957 | -76.66804 | 36166 ft | 389 kts | 319° |
| 2026-05-06 15:14 | 31.05148 | -76.70806 | 36169 ft | 389 kts | 319° |
| 2026-05-06 15:14 | 31.09348 | -76.74827 | 36168 ft | 390 kts | 319° |
| 2026-05-06 15:15 | 31.13509 | -76.78812 | 36189 ft | 389 kts | 319° |
| 2026-05-06 15:15 | 31.17688 | -76.82819 | 36185 ft | 388 kts | 319° |
| 2026-05-06 15:16 | 31.21862 | -76.86812 | 36179 ft | 388 kts | 319° |
| 2026-05-06 15:16 | 31.26037 | -76.90821 | 36162 ft | 389 kts | 319° |
| 2026-05-06 15:17 | 31.30207 | -76.94848 | 36162 ft | 390 kts | 319° |
| 2026-05-06 15:17 | 31.34374 | -76.98906 | 36154 ft | 390 kts | 315° |
| 2026-05-06 15:18 | 31.37627 | -77.03933 | 36154 ft | 389 kts | 302° |
| 2026-05-06 15:18 | 31.40467 | -77.09350 | 36159 ft | 390 kts | 303° |
| 2026-05-06 15:19 | 31.43324 | -77.14752 | 36195 ft | 390 kts | 303° |
| 2026-05-06 15:19 | 31.46159 | -77.20146 | 36192 ft | 388 kts | 302° |
| 2026-05-06 15:20 | 31.48981 | -77.25534 | 36162 ft | 388 kts | 302° |
| 2026-05-06 15:20 | 31.51796 | -77.30923 | 36160 ft | 388 kts | 302° |
| 2026-05-06 15:21 | 31.54614 | -77.36323 | 36163 ft | 388 kts | 302° |
| 2026-05-06 15:21 | 31.57438 | -77.41730 | 36165 ft | 389 kts | 302° |
| 2026-05-06 15:22 | 31.60258 | -77.47140 | 36165 ft | 389 kts | 302° |
| 2026-05-06 15:22 | 31.63073 | -77.52550 | 36159 ft | 389 kts | 302° |
| 2026-05-06 15:23 | 31.65886 | -77.57976 | 36163 ft | 389 kts | 302° |
| 2026-05-06 15:23 | 31.68700 | -77.63388 | 36164 ft | 389 kts | 302° |
| 2026-05-06 15:24 | 31.71492 | -77.68781 | 36159 ft | 389 kts | 301° |
| 2026-05-06 15:24 | 31.74298 | -77.74202 | 36158 ft | 388 kts | 301° |
| 2026-05-06 15:25 | 31.77101 | -77.79632 | 36177 ft | 388 kts | 301° |
| 2026-05-06 15:25 | 31.79891 | -77.85054 | 36167 ft | 388 kts | 301° |
| 2026-05-06 15:26 | 31.82688 | -77.90477 | 36162 ft | 387 kts | 301° |
| 2026-05-06 15:26 | 31.85478 | -77.95891 | 36161 ft | 387 kts | 301° |
| 2026-05-06 15:27 | 31.88268 | -78.01313 | 36159 ft | 387 kts | 301° |
| 2026-05-06 15:27 | 31.91050 | -78.06728 | 36158 ft | 386 kts | 301° |
| 2026-05-06 15:28 | 31.93823 | -78.12149 | 36152 ft | 386 kts | 301° |
| 2026-05-06 15:28 | 31.96593 | -78.17568 | 36151 ft | 386 kts | 301° |
| 2026-05-06 15:29 | 31.99357 | -78.22983 | 36147 ft | 386 kts | 301° |
| 2026-05-06 15:29 | 32.02124 | -78.28407 | 36146 ft | 386 kts | 301° |
| 2026-05-06 15:30 | 32.04882 | -78.33818 | 36148 ft | 386 kts | 301° |
| 2026-05-06 15:30 | 32.07644 | -78.39249 | 36146 ft | 386 kts | 301° |
| 2026-05-06 15:31 | 32.10383 | -78.44640 | 36169 ft | 385 kts | 301° |
| 2026-05-06 15:31 | 32.13124 | -78.50047 | 36162 ft | 384 kts | 301° |
| 2026-05-06 15:32 | 32.17233 | -78.58160 | 36151 ft | 383 kts | 301° |
| 2026-05-06 15:32 | 32.19962 | -78.63561 | 36148 ft | 383 kts | 300° |
| 2026-05-06 15:33 | 32.22682 | -78.68966 | 36144 ft | 383 kts | 300° |
| 2026-05-06 15:33 | 32.25410 | -78.74373 | 36137 ft | 382 kts | 300° |
| 2026-05-06 15:34 | 32.28128 | -78.79768 | 36133 ft | 383 kts | 300° |
| 2026-05-06 15:34 | 32.30846 | -78.85184 | 36133 ft | 382 kts | 300° |
| 2026-05-06 15:35 | 32.33561 | -78.90590 | 36132 ft | 382 kts | 300° |
| 2026-05-06 15:35 | 32.36272 | -78.95999 | 36127 ft | 382 kts | 300° |
| 2026-05-06 15:36 | 32.38976 | -79.01407 | 36127 ft | 382 kts | 300° |
| 2026-05-06 15:36 | 32.41225 | -79.05906 | 36156 ft | 382 kts | 300° |
| 2026-05-06 15:37 | 32.43924 | -79.11323 | 36153 ft | 381 kts | 300° |
| 2026-05-06 15:37 | 32.46610 | -79.16719 | 36146 ft | 380 kts | 300° |
| 2026-05-06 15:38 | 32.49301 | -79.22118 | 36139 ft | 380 kts | 300° |
| 2026-05-06 15:38 | 32.51980 | -79.27503 | 36136 ft | 379 kts | 300° |
| 2026-05-06 15:39 | 32.54648 | -79.32893 | 36134 ft | 379 kts | 300° |
| 2026-05-06 15:39 | 32.57308 | -79.38282 | 36131 ft | 379 kts | 300° |
| 2026-05-06 15:40 | 32.59959 | -79.43635 | 36132 ft | 378 kts | 299° |
| 2026-05-06 15:40 | 32.62624 | -79.49018 | 36129 ft | 378 kts | 299° |
| 2026-05-06 15:41 | 32.65275 | -79.54398 | 36128 ft | 377 kts | 299° |
| 2026-05-06 15:41 | 32.67917 | -79.59774 | 36128 ft | 377 kts | 299° |
| 2026-05-06 15:42 | 32.70555 | -79.65148 | 36126 ft | 377 kts | 299° |
| 2026-05-06 15:42 | 32.73193 | -79.70520 | 36131 ft | 377 kts | 299° |
| 2026-05-06 15:43 | 32.75832 | -79.75884 | 36142 ft | 375 kts | 299° |
| 2026-05-06 15:43 | 32.78459 | -79.81236 | 36149 ft | 374 kts | 298° |
| 2026-05-06 15:44 | 32.81063 | -79.86576 | 36141 ft | 373 kts | 298° |
| 2026-05-06 15:44 | 32.83658 | -79.91906 | 36136 ft | 373 kts | 298° |
| 2026-05-06 15:45 | 32.86260 | -79.97252 | 36134 ft | 373 kts | 298° |
| 2026-05-06 15:45 | 32.88771 | -80.02638 | 36130 ft | 372 kts | 292° |
| 2026-05-06 15:46 | 32.89899 | -80.08630 | 36127 ft | 374 kts | 279° |
| 2026-05-06 15:46 | 32.90478 | -80.14782 | 36127 ft | 375 kts | 279° |
| 2026-05-06 15:47 | 32.91081 | -80.20948 | 36134 ft | 374 kts | 279° |
| 2026-05-06 15:47 | 32.91669 | -80.27062 | 36131 ft | 373 kts | 279° |
| 2026-05-06 15:48 | 32.92246 | -80.33199 | 36128 ft | 373 kts | 279° |
| 2026-05-06 15:48 | 32.92814 | -80.39332 | 36121 ft | 372 kts | 279° |
| 2026-05-06 15:49 | 32.93387 | -80.45446 | 36115 ft | 372 kts | 279° |
| 2026-05-06 15:49 | 32.93960 | -80.51573 | 36109 ft | 372 kts | 279° |
| 2026-05-06 15:50 | 32.94524 | -80.57681 | 36116 ft | 371 kts | 278° |
| 2026-05-06 15:50 | 32.95088 | -80.63770 | 36159 ft | 370 kts | 278° |
| 2026-05-06 15:51 | 32.95646 | -80.69857 | 36156 ft | 369 kts | 278° |
| 2026-05-06 15:51 | 32.96196 | -80.75924 | 36151 ft | 369 kts | 278° |
| 2026-05-06 15:52 | 32.96745 | -80.82008 | 36142 ft | 368 kts | 278° |
| 2026-05-06 15:52 | 32.97297 | -80.88079 | 36133 ft | 369 kts | 278° |
| 2026-05-06 15:53 | 32.97842 | -80.94151 | 36117 ft | 369 kts | 278° |
| 2026-05-06 15:53 | 32.98377 | -81.00226 | 36105 ft | 369 kts | 278° |
| 2026-05-06 15:54 | 32.98914 | -81.06272 | 36105 ft | 369 kts | 278° |
| 2026-05-06 15:54 | 32.99452 | -81.12348 | 36107 ft | 369 kts | 278° |
| 2026-05-06 15:55 | 32.99982 | -81.18425 | 36106 ft | 369 kts | 278° |
| 2026-05-06 15:55 | 33.00510 | -81.24496 | 36106 ft | 369 kts | 278° |
| 2026-05-06 15:56 | 33.01034 | -81.30570 | 36093 ft | 368 kts | 278° |
| 2026-05-06 15:56 | 33.01558 | -81.36645 | 36094 ft | 369 kts | 278° |
| 2026-05-06 15:57 | 33.02082 | -81.42724 | 36091 ft | 369 kts | 278° |
| 2026-05-06 15:57 | 33.02601 | -81.48804 | 36090 ft | 369 kts | 278° |
| 2026-05-06 15:58 | 33.03118 | -81.54888 | 36089 ft | 369 kts | 278° |
| 2026-05-06 15:58 | 33.03628 | -81.60992 | 36082 ft | 369 kts | 278° |
| 2026-05-06 15:59 | 33.04132 | -81.67071 | 36068 ft | 369 kts | 278° |
| 2026-05-06 15:59 | 33.04638 | -81.73169 | 36072 ft | 369 kts | 278° |
| 2026-05-06 16:00 | 33.05143 | -81.79252 | 36078 ft | 369 kts | 278° |
| 2026-05-06 16:00 | 33.05643 | -81.85342 | 36079 ft | 369 kts | 278° |
| 2026-05-06 16:01 | 33.06122 | -81.91399 | 36083 ft | 369 kts | 277° |
| 2026-05-06 16:01 | 33.06578 | -81.97536 | 36083 ft | 369 kts | 277° |
| 2026-05-06 16:02 | 33.07023 | -82.03599 | 36085 ft | 369 kts | 277° |
| 2026-05-06 16:02 | 33.07471 | -82.09708 | 36081 ft | 369 kts | 277° |
| 2026-05-06 16:03 | 33.07921 | -82.15795 | 35550 ft | 368 kts | 277° |
| 2026-05-06 16:03 | 33.08147 | -82.18847 | 34761 ft | 373 kts | 277° |
| 2026-05-06 16:03 | 33.08379 | -82.21948 | 33862 ft | 380 kts | 277° |
| 2026-05-06 16:04 | 33.08615 | -82.25136 | 32827 ft | 389 kts | 277° |
| 2026-05-06 16:04 | 33.08853 | -82.28379 | 31830 ft | 397 kts | 277° |
| 2026-05-06 16:04 | 33.09095 | -82.31690 | 30850 ft | 405 kts | 276° |
| 2026-05-06 16:04 | 33.09339 | -82.35066 | 29869 ft | 413 kts | 276° |
| 2026-05-06 16:05 | 33.09583 | -82.38482 | 29131 ft | 411 kts | 276° |
| 2026-05-06 16:05 | 33.09824 | -82.41861 | 28478 ft | 408 kts | 276° |
| 2026-05-06 16:05 | 33.10062 | -82.45228 | 27888 ft | 404 kts | 276° |
| 2026-05-06 16:05 | 33.10296 | -82.48553 | 27280 ft | 401 kts | 276° |
| 2026-05-06 16:06 | 33.10526 | -82.51852 | 26681 ft | 398 kts | 276° |
| 2026-05-06 16:06 | 33.10755 | -82.55131 | 26089 ft | 395 kts | 276° |
| 2026-05-06 16:06 | 33.10983 | -82.58393 | 25507 ft | 393 kts | 276° |
| 2026-05-06 16:06 | 33.11207 | -82.61626 | 24941 ft | 390 kts | 276° |
| 2026-05-06 16:07 | 33.11431 | -82.64839 | 24388 ft | 388 kts | 276° |
| 2026-05-06 16:07 | 33.11650 | -82.68006 | 24131 ft | 377 kts | 276° |
| 2026-05-06 16:07 | 33.11864 | -82.71093 | 23742 ft | 371 kts | 276° |
| 2026-05-06 16:07 | 33.12072 | -82.74103 | 23217 ft | 367 kts | 276° |
| 2026-05-06 16:08 | 33.12280 | -82.77120 | 22730 ft | 362 kts | 276° |
| 2026-05-06 16:08 | 33.12484 | -82.80086 | 22279 ft | 355 kts | 276° |
| 2026-05-06 16:08 | 33.12686 | -82.82998 | 21858 ft | 349 kts | 276° |
| 2026-05-06 16:08 | 33.12885 | -82.85860 | 21411 ft | 343 kts | 276° |
| 2026-05-06 16:09 | 33.13081 | -82.88673 | 20966 ft | 338 kts | 276° |
| 2026-05-06 16:09 | 33.13271 | -82.91451 | 20528 ft | 333 kts | 276° |
| 2026-05-06 16:09 | 33.13455 | -82.94192 | 20105 ft | 328 kts | 276° |
| 2026-05-06 16:09 | 33.13639 | -82.96886 | 19692 ft | 323 kts | 276° |
| 2026-05-06 16:10 | 33.13819 | -82.99544 | 19279 ft | 319 kts | 276° |
| 2026-05-06 16:10 | 33.13995 | -83.02161 | 18886 ft | 314 kts | 276° |
| 2026-05-06 16:10 | 33.14170 | -83.04745 | 18495 ft | 310 kts | 275° |
| 2026-05-06 16:10 | 33.14338 | -83.07285 | 18066 ft | 306 kts | 275° |
| 2026-05-06 16:11 | 33.14506 | -83.09811 | 17550 ft | 304 kts | 275° |
| 2026-05-06 16:11 | 33.14674 | -83.12319 | 17026 ft | 303 kts | 275° |
| 2026-05-06 16:11 | 33.14840 | -83.14825 | 16499 ft | 302 kts | 275° |
| 2026-05-06 16:11 | 33.15005 | -83.17320 | 16014 ft | 301 kts | 274° |
| 2026-05-06 16:12 | 33.15169 | -83.19799 | 15521 ft | 299 kts | 274° |
| 2026-05-06 16:12 | 33.15333 | -83.22275 | 15050 ft | 299 kts | 274° |
| 2026-05-06 16:12 | 33.15496 | -83.24739 | 14565 ft | 298 kts | 274° |
| 2026-05-06 16:12 | 33.15659 | -83.27205 | 14135 ft | 297 kts | 274° |
| 2026-05-06 16:13 | 33.15821 | -83.29668 | 14013 ft | 298 kts | 273° |
| 2026-05-06 16:13 | 33.15982 | -83.32143 | 14018 ft | 300 kts | 273° |
| 2026-05-06 16:13 | 33.16141 | -83.34623 | 14018 ft | 300 kts | 273° |
| 2026-05-06 16:13 | 33.16300 | -83.37107 | 14016 ft | 300 kts | 274° |
| 2026-05-06 16:14 | 33.16459 | -83.39591 | 14011 ft | 300 kts | 274° |
| 2026-05-06 16:14 | 33.16617 | -83.42042 | 13952 ft | 290 kts | 274° |
| 2026-05-06 16:14 | 33.16767 | -83.44388 | 13796 ft | 278 kts | 273° |
| 2026-05-06 16:14 | 33.16908 | -83.46645 | 13647 ft | 267 kts | 273° |
| 2026-05-06 16:15 | 33.17042 | -83.48830 | 13341 ft | 262 kts | 273° |
| 2026-05-06 16:15 | 33.17171 | -83.50992 | 12952 ft | 261 kts | 272° |
| 2026-05-06 16:15 | 33.17299 | -83.53152 | 12567 ft | 260 kts | 273° |
| 2026-05-06 16:15 | 33.17427 | -83.55296 | 12204 ft | 258 kts | 272° |
| 2026-05-06 16:16 | 33.17552 | -83.57433 | 11820 ft | 257 kts | 272° |
| 2026-05-06 16:16 | 33.17677 | -83.59533 | 11439 ft | 257 kts | 272° |
| 2026-05-06 16:16 | 33.17808 | -83.61685 | 11059 ft | 256 kts | 272° |
| 2026-05-06 16:16 | 33.17934 | -83.63776 | 10971 ft | 256 kts | 272° |
| 2026-05-06 16:17 | 33.18061 | -83.65902 | 10978 ft | 257 kts | 272° |
| 2026-05-06 16:17 | 33.18186 | -83.68038 | 10979 ft | 258 kts | 272° |
| 2026-05-06 16:17 | 33.18311 | -83.70172 | 10979 ft | 258 kts | 272° |
| 2026-05-06 16:17 | 33.18435 | -83.72307 | 10980 ft | 258 kts | 272° |
| 2026-05-06 16:18 | 33.18559 | -83.74444 | 10977 ft | 258 kts | 272° |
| 2026-05-06 16:18 | 33.18687 | -83.76573 | 10979 ft | 257 kts | 272° |
| 2026-05-06 16:18 | 33.18818 | -83.78709 | 10979 ft | 257 kts | 272° |
| 2026-05-06 16:18 | 33.19076 | -83.80820 | 10975 ft | 260 kts | 284° |
| 2026-05-06 16:19 | 33.20021 | -83.82684 | 10980 ft | 272 kts | 310° |
| 2026-05-06 16:19 | 33.21607 | -83.83992 | 10982 ft | 281 kts | 322° |
| 2026-05-06 16:19 | 33.23325 | -83.85119 | 10980 ft | 282 kts | 323° |
| 2026-05-06 16:19 | 33.24924 | -83.86426 | 10948 ft | 276 kts | 315° |
| 2026-05-06 16:20 | 33.26418 | -83.87833 | 10574 ft | 273 kts | 314° |
| 2026-05-06 16:20 | 33.27899 | -83.89253 | 10178 ft | 273 kts | 314° |
| 2026-05-06 16:20 | 33.29380 | -83.90681 | 9774 ft | 273 kts | 314° |
| 2026-05-06 16:20 | 33.30855 | -83.92104 | 9339 ft | 273 kts | 314° |
| 2026-05-06 16:21 | 33.31854 | -83.93074 | 9063 ft | 272 kts | 314° |
| 2026-05-06 16:21 | 33.33295 | -83.94484 | 8694 ft | 270 kts | 314° |
| 2026-05-06 16:21 | 33.34736 | -83.95906 | 8318 ft | 268 kts | 314° |
| 2026-05-06 16:21 | 33.36177 | -83.97336 | 7963 ft | 265 kts | 314° |
| 2026-05-06 16:22 | 33.37570 | -83.98733 | 7709 ft | 262 kts | 314° |
| 2026-05-06 16:22 | 33.38946 | -84.00121 | 7588 ft | 257 kts | 314° |
| 2026-05-06 16:22 | 33.40300 | -84.01484 | 7486 ft | 250 kts | 314° |
| 2026-05-06 16:22 | 33.41605 | -84.02794 | 7358 ft | 240 kts | 314° |
| 2026-05-06 16:23 | 33.42855 | -84.04043 | 7239 ft | 229 kts | 314° |
| 2026-05-06 16:23 | 33.44053 | -84.05238 | 7097 ft | 220 kts | 314° |
| 2026-05-06 16:23 | 33.45219 | -84.06397 | 6835 ft | 216 kts | 314° |
| 2026-05-06 16:23 | 33.46366 | -84.07548 | 6564 ft | 214 kts | 314° |
| 2026-05-06 16:24 | 33.47499 | -84.08691 | 6266 ft | 213 kts | 314° |
| 2026-05-06 16:24 | 33.48634 | -84.09842 | 5936 ft | 214 kts | 314° |
| 2026-05-06 16:24 | 33.49764 | -84.10990 | 5653 ft | 213 kts | 314° |
| 2026-05-06 16:24 | 33.50891 | -84.12132 | 5404 ft | 210 kts | 314° |
| 2026-05-06 16:25 | 33.51992 | -84.13237 | 5283 ft | 202 kts | 314° |
| 2026-05-06 16:25 | 33.53037 | -84.14280 | 5183 ft | 190 kts | 314° |
| 2026-05-06 16:25 | 33.54034 | -84.15261 | 5005 ft | 183 kts | 314° |
| 2026-05-06 16:25 | 33.55009 | -84.16220 | 4761 ft | 181 kts | 314° |
| 2026-05-06 16:26 | 33.55989 | -84.17191 | 4442 ft | 183 kts | 314° |
| 2026-05-06 16:26 | 33.56954 | -84.18140 | 4294 ft | 176 kts | 314° |
| 2026-05-06 16:26 | 33.57901 | -84.19069 | 4027 ft | 176 kts | 314° |
| 2026-05-06 16:26 | 33.58857 | -84.20004 | 3762 ft | 177 kts | 314° |
| 2026-05-06 16:27 | 33.59813 | -84.20933 | 3538 ft | 175 kts | 313° |
| 2026-05-06 16:27 | 33.60652 | -84.21954 | 3265 ft | 171 kts | 300° |
| 2026-05-06 16:27 | 33.61296 | -84.23142 | 3042 ft | 167 kts | 295° |
| 2026-05-06 16:27 | 33.61891 | -84.24350 | 3021 ft | 168 kts | 294° |
| 2026-05-06 16:28 | 33.62471 | -84.25549 | 3013 ft | 168 kts | 293° |
| 2026-05-06 16:28 | 33.62792 | -84.26850 | 3001 ft | 153 kts | 271° |
| 2026-05-06 16:28 | 33.62912 | -84.28069 | 3002 ft | 145 kts | 272° |
| 2026-05-06 16:28 | 33.63028 | -84.29258 | 3027 ft | 145 kts | 271° |
| 2026-05-06 16:29 | 33.63109 | -84.30491 | 2848 ft | 146 kts | 269° |
| 2026-05-06 16:29 | 33.63146 | -84.31694 | 2667 ft | 144 kts | 268° |
| 2026-05-06 16:29 | 33.63164 | -84.32891 | 2485 ft | 146 kts | 266° |
| 2026-05-06 16:29 | 33.63172 | -84.34086 | 2292 ft | 140 kts | 268° |
| 2026-05-06 16:30 | 33.63177 | -84.35235 | 2120 ft | 135 kts | 265° |
| 2026-05-06 16:30 | 33.63179 | -84.35995 | 1996 ft | 134 kts | 265° |
| 2026-05-06 16:30 | 33.63180 | -84.37478 | 1768 ft | 134 kts | 266° |
| 2026-05-06 16:30 | 33.63181 | -84.38613 | 1581 ft | 137 kts | 268° |
| 2026-05-06 16:31 | 33.63181 | -84.39764 | 1394 ft | 139 kts | 271° |
| 2026-05-06 16:31 | 33.63184 | -84.40903 | 1189 ft | 137 kts | 271° |
| 2026-05-06 16:31 | 33.63184 | -84.41994 | 1033 ft | 124 kts | 268° |
| 2026-05-06 16:31 | 33.63183 | -84.42899 | 1007 ft | 82 kts | 270° |
| 2026-05-06 16:32 | 33.63184 | -84.43398 | 1008 ft | 43 kts | 270° |
| 2026-05-06 16:32 | 33.63254 | -84.43691 | 1007 ft | 20 kts | 300° |
| 2026-05-06 16:32 | 33.63304 | -84.43747 | 1006 ft | 5 kts | 15° |
| 2026-05-06 16:32 | 33.63335 | -84.43727 | 1006 ft | 5 kts | 35° |
| 2026-05-06 16:33 | 33.63351 | -84.43697 | 1006 ft | 4 kts | 68° |
| 2026-05-06 16:33 | 33.63360 | -84.43641 | 1006 ft | 11 kts | 87° |
| 2026-05-06 16:33 | 33.63361 | -84.43513 | 1007 ft | 19 kts | 90° |
| 2026-05-06 16:34 | 33.63445 | -84.43312 | 1006 ft | 16 kts | 4° |
| 2026-05-06 16:34 | 33.63543 | -84.43311 | 1005 ft | 12 kts | 1° |
| 2026-05-06 16:34 | 33.63620 | -84.43306 | 1006 ft | 10 kts | 13° |
| 2026-05-06 16:34 | 33.63658 | -84.43249 | 1006 ft | 8 kts | 81° |
| 2026-05-06 16:35 | 33.63663 | -84.43175 | 1006 ft | 12 kts | 89° |
| 2026-05-06 16:35 | 33.63664 | -84.43044 | 1006 ft | 19 kts | 89° |
| 2026-05-06 16:35 | 33.63663 | -84.42860 | 1006 ft | 25 kts | 91° |
| 2026-05-06 16:35 | 33.63654 | -84.42654 | 1007 ft | 24 kts | 93° |
| 2026-05-06 16:36 | 33.63656 | -84.42457 | 1007 ft | 21 kts | 89° |
| 2026-05-06 16:36 | 33.63656 | -84.42286 | 1007 ft | 20 kts | 90° |
| 2026-05-06 16:36 | 33.63655 | -84.42124 | 1007 ft | 19 kts | 90° |
| 2026-05-06 16:36 | 33.63657 | -84.41974 | 1006 ft | 18 kts | 87° |
| 2026-05-06 16:37 | 33.63675 | -84.41843 | 1006 ft | 15 kts | 36° |
| 2026-05-06 16:37 | 33.63767 | -84.41825 | 1007 ft | 13 kts | 1° |
| 2026-05-06 16:37 | 33.63849 | -84.41818 | 1007 ft | 10 kts | 13° |
| 2026-05-06 16:37 | 33.63907 | -84.41813 | 1007 ft | 8 kts | 354° |
| 2026-05-06 16:38 | 33.63947 | -84.41797 | 1007 ft | 4 kts | 11° |
| 2026-05-06 16:38 | 33.63970 | -84.41814 | 1006 ft | 4 kts | 313° |
| 2026-05-06 16:38 | 33.63983 | -84.41834 | 1006 ft | 0 kts | 304° |
| 2026-05-06 16:38 | 33.63984 | -84.41837 | 1006 ft | 2 kts | 305° |
| 2026-05-06 16:39 | 33.63986 | -84.41840 | 1006 ft | 1 kts | 305° |
| 2026-05-06 16:39 | 33.63988 | -84.41842 | 1006 ft | 0 kts | 305° |